createdAt,value
2019-02-26T00:00:00.861Z,18.94
2019-02-26T00:01:00.864Z,18.93
2019-02-26T00:02:02.550Z,18.94
2019-02-26T00:03:02.952Z,18.83
2019-02-26T00:04:00.874Z,18.83
2019-02-26T00:05:03.430Z,18.94
2019-02-26T00:06:01.643Z,18.93
2019-02-26T00:07:00.882Z,18.83
2019-02-26T00:08:02.628Z,18.83
2019-02-26T00:09:03.522Z,19.32
2019-02-26T00:10:02.618Z,19.12
2019-02-26T00:11:01.701Z,18.93
2019-02-26T00:12:00.897Z,18.84
2019-02-26T00:13:00.901Z,19.13
2019-02-26T00:14:00.904Z,18.93
2019-02-26T00:15:02.582Z,19.12
2019-02-26T00:16:05.599Z,19.22
2019-02-26T00:17:00.919Z,19.32
2019-02-26T00:18:00.917Z,19.22
2019-02-26T00:19:02.748Z,19.04
2019-02-26T00:20:00.923Z,19.22
2019-02-26T00:21:02.809Z,19.32
2019-02-26T00:22:00.927Z,19.13
2019-02-26T00:23:02.111Z,19.12
2019-02-26T00:24:00.933Z,19.23
2019-02-26T00:25:03.818Z,19.13
2019-02-26T00:26:00.940Z,19.22
2019-02-26T00:27:01.627Z,19.22
2019-02-26T00:28:00.947Z,19.13
2019-02-26T00:29:01.844Z,19.12
2019-02-26T00:30:00.957Z,19.12
2019-02-26T00:31:01.758Z,19.22
2019-02-26T00:32:00.955Z,19.12
2019-02-26T00:33:02.782Z,19.12
2019-02-26T00:34:00.963Z,19.13
2019-02-26T00:35:02.040Z,19.12
2019-02-26T00:36:00.968Z,19.04
2019-02-26T00:37:01.821Z,19.12
2019-02-26T00:38:00.974Z,19.51
2019-02-26T00:39:02.903Z,19.04
2019-02-26T00:40:00.980Z,19.02
2019-02-26T00:41:02.183Z,19.13
2019-02-26T00:42:02.737Z,19.04
2019-02-26T00:43:02.553Z,19.02
2019-02-26T00:44:02.168Z,18.93
2019-02-26T00:45:03.314Z,18.93
2019-02-26T00:46:03.068Z,18.93
2019-02-26T00:47:02.550Z,18.93
2019-02-26T00:48:01.005Z,18.93
2019-02-26T00:49:03.021Z,18.93
2019-02-26T00:50:01.011Z,19.02
2019-02-26T00:51:02.790Z,19.02
2019-02-26T00:52:01.016Z,19.02
2019-02-26T00:53:01.800Z,19.22
2019-02-26T00:54:02.001Z,19.22
2019-02-26T00:55:03.169Z,19.02
2019-02-26T00:56:03.118Z,19.22
2019-02-26T00:57:03.292Z,19.02
2019-02-26T00:58:03.259Z,19.04
2019-02-26T00:59:01.037Z,19.22
2019-02-26T01:00:03.378Z,19.32
2019-02-26T01:01:01.048Z,19.42
2019-02-26T01:02:01.046Z,19.42
2019-02-26T01:03:01.433Z,19.51
2019-02-26T01:04:01.053Z,19.32
2019-02-26T01:05:01.055Z,19.32
2019-02-26T01:06:01.613Z,19.32
2019-02-26T01:07:01.642Z,19.51
2019-02-26T01:08:01.067Z,19.51
2019-02-26T01:09:03.226Z,19.51
2019-02-26T01:10:01.071Z,19.51
2019-02-26T01:11:02.078Z,19.51
2019-02-26T01:12:01.075Z,19.22
2019-02-26T01:13:03.024Z,19.51
2019-02-26T01:14:01.082Z,19.51
2019-02-26T01:15:03.126Z,19.51
2019-02-26T01:16:01.087Z,19.42
2019-02-26T01:17:01.091Z,19.42
2019-02-26T01:18:03.072Z,19.42
2019-02-26T01:19:01.097Z,19.42
2019-02-26T01:20:03.533Z,19.51
2019-02-26T01:21:02.539Z,19.51
2019-02-26T01:22:01.106Z,19.42
2019-02-26T01:23:01.110Z,19.61
2019-02-26T01:24:01.746Z,19.42
2019-02-26T01:25:01.114Z,19.52
2019-02-26T01:26:01.118Z,19.70
2019-02-26T01:27:01.121Z,19.71
2019-02-26T01:28:01.123Z,19.51
2019-02-26T01:29:01.130Z,19.70
2019-02-26T01:30:03.251Z,19.61
2019-02-26T01:31:03.123Z,19.61
2019-02-26T01:32:02.215Z,19.51
2019-02-26T01:33:03.233Z,19.61
2019-02-26T01:34:01.142Z,19.71
2019-02-26T01:35:03.296Z,19.70
2019-02-26T01:36:02.708Z,19.70
2019-02-26T01:37:03.050Z,19.61
2019-02-26T01:38:01.156Z,19.61
2019-02-26T01:39:01.157Z,19.61
2019-02-26T01:40:01.159Z,19.70
2019-02-26T01:41:01.162Z,19.61
2019-02-26T01:42:01.165Z,19.61
2019-02-26T01:43:03.198Z,19.61
2019-02-26T01:44:01.171Z,19.61
2019-02-26T01:45:01.175Z,19.61
2019-02-26T01:46:01.178Z,19.80
2019-02-26T01:47:04.224Z,19.90
2019-02-26T01:48:01.183Z,19.52
2019-02-26T01:49:02.095Z,19.90
2019-02-26T01:50:01.190Z,19.70
2019-02-26T01:51:03.300Z,19.70
2019-02-26T01:52:01.196Z,19.61
2019-02-26T01:53:01.198Z,19.80
2019-02-26T01:54:01.201Z,19.81
2019-02-26T01:55:02.752Z,19.81
2019-02-26T01:56:04.565Z,19.80
2019-02-26T01:57:01.210Z,19.70
2019-02-26T01:58:01.218Z,19.70
2019-02-26T01:59:02.391Z,19.80
2019-02-26T02:00:01.220Z,19.80
2019-02-26T02:01:01.229Z,19.70
2019-02-26T02:02:01.226Z,19.70
2019-02-26T02:03:01.229Z,19.70
2019-02-26T02:04:01.234Z,19.70
2019-02-26T02:05:02.899Z,19.61
2019-02-26T02:06:01.239Z,19.70
2019-02-26T02:07:01.873Z,19.80
2019-02-26T02:08:01.244Z,19.70
2019-02-26T02:09:01.250Z,19.61
2019-02-26T02:10:03.238Z,19.61
2019-02-26T02:11:02.400Z,19.70
2019-02-26T02:12:02.125Z,19.61
2019-02-26T02:13:02.865Z,19.70
2019-02-26T02:14:01.983Z,19.90
2019-02-26T02:15:01.264Z,19.90
2019-02-26T02:16:02.198Z,19.90
2019-02-26T02:17:03.518Z,19.80
2019-02-26T02:18:01.787Z,19.70
2019-02-26T02:19:01.281Z,19.90
2019-02-26T02:20:05.266Z,19.80
2019-02-26T02:21:01.282Z,19.90
2019-02-26T02:22:01.285Z,19.90
2019-02-26T02:23:02.681Z,19.90
2019-02-26T02:24:01.292Z,19.80
2019-02-26T02:25:01.295Z,19.80
2019-02-26T02:26:04.201Z,19.80
2019-02-26T02:27:01.304Z,19.90
2019-02-26T02:28:02.690Z,20.00
2019-02-26T02:29:01.314Z,19.90
2019-02-26T02:30:01.310Z,19.90
2019-02-26T02:31:01.312Z,20.00
2019-02-26T02:32:04.362Z,19.90
2019-02-26T02:33:02.148Z,20.00
2019-02-26T02:34:01.321Z,20.00
2019-02-26T02:35:04.387Z,20.00
2019-02-26T02:36:01.327Z,20.09
2019-02-26T02:37:01.330Z,19.80
2019-02-26T02:38:02.961Z,20.01
2019-02-26T02:39:01.336Z,20.00
2019-02-26T02:40:01.339Z,20.00
2019-02-26T02:41:01.344Z,19.90
2019-02-26T02:42:01.349Z,20.00
2019-02-26T02:43:04.465Z,19.90
2019-02-26T02:44:01.350Z,20.00
2019-02-26T02:45:01.353Z,19.90
2019-02-26T02:46:01.422Z,19.90
2019-02-26T02:47:02.008Z,19.80
2019-02-26T02:48:03.279Z,20.00
2019-02-26T02:49:02.287Z,20.00
2019-02-26T02:50:03.069Z,19.90
2019-02-26T02:51:02.362Z,19.90
2019-02-26T02:52:02.037Z,19.90
2019-02-26T02:53:02.229Z,20.00
2019-02-26T02:54:01.381Z,20.00
2019-02-26T02:55:01.383Z,19.90
2019-02-26T02:56:03.523Z,20.00
2019-02-26T02:57:02.488Z,19.90
2019-02-26T02:58:01.392Z,19.90
2019-02-26T02:59:03.374Z,19.90
2019-02-26T03:00:02.982Z,20.00
2019-02-26T03:01:01.405Z,20.00
2019-02-26T03:02:01.414Z,19.90
2019-02-26T03:03:01.408Z,19.90
2019-02-26T03:04:01.419Z,20.00
2019-02-26T03:05:01.411Z,19.90
2019-02-26T03:06:04.406Z,19.90
2019-02-26T03:07:03.079Z,19.80
2019-02-26T03:08:01.422Z,19.80
2019-02-26T03:09:01.427Z,19.80
2019-02-26T03:10:04.031Z,20.00
2019-02-26T03:11:01.434Z,19.70
2019-02-26T03:12:01.436Z,19.80
2019-02-26T03:13:02.975Z,19.90
2019-02-26T03:14:01.440Z,19.70
2019-02-26T03:15:02.251Z,19.70
2019-02-26T03:16:01.759Z,19.80
2019-02-26T03:17:01.451Z,19.80
2019-02-26T03:18:03.501Z,19.80
2019-02-26T03:19:01.456Z,19.70
2019-02-26T03:20:04.723Z,19.61
2019-02-26T03:21:04.358Z,19.61
2019-02-26T03:22:01.469Z,19.70
2019-02-26T03:23:01.468Z,19.70
2019-02-26T03:24:03.360Z,19.70
2019-02-26T03:25:02.416Z,19.61
2019-02-26T03:26:01.475Z,19.51
2019-02-26T03:27:01.479Z,19.61
2019-02-26T03:28:01.481Z,19.51
2019-02-26T03:29:01.484Z,19.51
2019-02-26T03:30:02.166Z,19.51
2019-02-26T03:31:01.499Z,19.42
2019-02-26T03:32:01.499Z,19.51
2019-02-26T03:33:04.468Z,19.42
2019-02-26T03:34:08.745Z,19.51
2019-02-26T03:35:04.363Z,19.61
2019-02-26T03:36:05.474Z,19.51
2019-02-26T03:37:03.860Z,19.42
2019-02-26T03:38:03.577Z,19.32
2019-02-26T03:39:02.874Z,19.32
2019-02-26T03:40:03.641Z,19.42
2019-02-26T03:41:03.616Z,19.42
2019-02-26T03:42:01.524Z,19.32
2019-02-26T03:43:04.418Z,19.22
2019-02-26T03:44:03.325Z,19.32
2019-02-26T03:45:03.205Z,18.93
2019-02-26T03:46:01.545Z,18.93
2019-02-26T03:47:01.537Z,19.02
2019-02-26T03:48:01.542Z,19.02
2019-02-26T03:49:02.775Z,18.93
2019-02-26T03:50:01.552Z,19.22
2019-02-26T03:51:01.581Z,19.32
2019-02-26T03:52:01.559Z,19.02
2019-02-26T03:53:01.555Z,19.02
2019-02-26T03:54:01.559Z,18.93
2019-02-26T03:55:03.335Z,19.12
2019-02-26T03:56:04.219Z,19.02
2019-02-26T03:57:01.573Z,18.93
2019-02-26T03:58:02.233Z,19.02
2019-02-26T03:59:05.748Z,19.02
2019-02-26T04:00:05.651Z,19.22
2019-02-26T04:01:04.496Z,19.12
2019-02-26T04:02:01.581Z,19.02
2019-02-26T04:03:03.524Z,19.12
2019-02-26T04:04:02.449Z,19.02
2019-02-26T04:05:02.849Z,19.02
2019-02-26T04:06:03.111Z,19.02
2019-02-26T04:07:04.141Z,19.12
2019-02-26T04:08:04.235Z,19.02
2019-02-26T04:09:01.602Z,19.12
2019-02-26T04:10:01.605Z,19.12
2019-02-26T04:11:02.021Z,19.12
2019-02-26T04:12:01.611Z,19.02
2019-02-26T04:13:01.613Z,19.12
2019-02-26T04:14:01.618Z,19.02
2019-02-26T04:15:01.621Z,19.12
2019-02-26T04:16:04.523Z,19.12
2019-02-26T04:17:03.597Z,19.02
2019-02-26T04:18:01.627Z,19.02
2019-02-26T04:19:01.632Z,19.12
2019-02-26T04:20:02.691Z,19.22
2019-02-26T04:21:05.723Z,19.12
2019-02-26T04:22:01.641Z,19.12
2019-02-26T04:23:01.645Z,19.02
2019-02-26T04:24:03.490Z,19.02
2019-02-26T04:25:06.342Z,18.93
2019-02-26T04:26:01.773Z,19.12
2019-02-26T04:27:01.655Z,19.22
2019-02-26T04:28:02.722Z,19.02
2019-02-26T04:29:01.661Z,19.12
2019-02-26T04:30:01.664Z,19.02
2019-02-26T04:31:02.936Z,19.12
2019-02-26T04:32:01.669Z,19.51
2019-02-26T04:33:03.971Z,19.12
2019-02-26T04:34:05.097Z,19.22
2019-02-26T04:35:02.846Z,19.12
2019-02-26T04:36:01.684Z,19.12
2019-02-26T04:37:04.652Z,19.22
2019-02-26T04:38:03.443Z,19.12
2019-02-26T04:39:01.692Z,19.12
2019-02-26T04:40:04.882Z,19.12
2019-02-26T04:41:02.986Z,19.12
2019-02-26T04:42:03.330Z,19.22
2019-02-26T04:43:02.661Z,19.22
2019-02-26T04:44:03.776Z,19.12
2019-02-26T04:45:05.003Z,19.22
2019-02-26T04:46:04.636Z,19.22
2019-02-26T04:47:03.521Z,19.22
2019-02-26T04:48:01.716Z,18.93
2019-02-26T04:49:01.718Z,19.02
2019-02-26T04:50:05.481Z,19.12
2019-02-26T04:51:01.726Z,19.22
2019-02-26T04:52:03.064Z,19.22
2019-02-26T04:53:04.476Z,19.12
2019-02-26T04:54:02.141Z,19.02
2019-02-26T04:55:01.737Z,18.83
2019-02-26T04:56:02.975Z,18.83
2019-02-26T04:57:01.747Z,19.12
2019-02-26T04:58:01.746Z,19.12
2019-02-26T04:59:03.579Z,18.93
2019-02-26T05:00:04.586Z,18.83
2019-02-26T05:01:01.753Z,18.83
2019-02-26T05:02:01.759Z,19.02
2019-02-26T05:03:01.763Z,18.93
2019-02-26T05:04:01.761Z,18.93
2019-02-26T05:05:01.765Z,19.12
2019-02-26T05:06:03.024Z,18.83
2019-02-26T05:07:04.363Z,18.83
2019-02-26T05:08:04.168Z,18.93
2019-02-26T05:09:02.677Z,19.02
2019-02-26T05:10:02.399Z,19.02
2019-02-26T05:11:01.782Z,18.93
2019-02-26T05:12:01.788Z,19.02
2019-02-26T05:13:03.951Z,19.12
2019-02-26T05:14:01.791Z,18.93
2019-02-26T05:15:01.794Z,18.83
2019-02-26T05:16:01.799Z,19.02
2019-02-26T05:17:01.799Z,18.93
2019-02-26T05:18:01.803Z,19.02
2019-02-26T05:19:01.806Z,18.93
2019-02-26T05:20:04.239Z,18.93
2019-02-26T05:21:04.557Z,18.93
2019-02-26T05:22:04.335Z,18.93
2019-02-26T05:23:03.085Z,18.93
2019-02-26T05:24:03.053Z,18.93
2019-02-26T05:25:01.831Z,19.02
2019-02-26T05:26:05.246Z,18.93
2019-02-26T05:27:01.831Z,18.73
2019-02-26T05:28:03.775Z,18.93
2019-02-26T05:29:01.836Z,18.83
2019-02-26T05:30:01.837Z,18.93
2019-02-26T05:31:03.641Z,18.93
2019-02-26T05:32:04.080Z,18.93
2019-02-26T05:33:02.938Z,19.02
2019-02-26T05:34:01.849Z,18.93
2019-02-26T05:35:01.853Z,18.93
2019-02-26T05:36:03.546Z,19.12
2019-02-26T05:37:02.352Z,18.93
2019-02-26T05:38:06.069Z,19.02
2019-02-26T05:39:02.269Z,18.93
2019-02-26T05:40:01.866Z,18.93
2019-02-26T05:41:01.870Z,19.02
2019-02-26T05:42:03.961Z,19.22
2019-02-26T05:43:04.041Z,18.73
2019-02-26T05:44:06.634Z,18.93
2019-02-26T05:45:03.841Z,18.83
2019-02-26T05:46:04.037Z,18.83
2019-02-26T05:47:01.888Z,18.54
2019-02-26T05:48:01.894Z,18.35
2019-02-26T05:49:03.556Z,18.15
2019-02-26T05:50:03.793Z,18.05
2019-02-26T05:51:03.572Z,17.76
2019-02-26T05:52:04.010Z,17.38
2019-02-26T05:53:04.919Z,17.47
2019-02-26T05:54:05.227Z,17.18
2019-02-26T05:55:01.929Z,17.47
2019-02-26T05:56:01.911Z,17.47
2019-02-26T05:57:04.149Z,17.18
2019-02-26T05:58:01.921Z,17.08
2019-02-26T05:59:04.766Z,17.28
2019-02-26T06:00:01.926Z,17.08
2019-02-26T06:01:01.930Z,16.69
2019-02-26T06:02:01.952Z,16.89
2019-02-26T06:03:03.692Z,16.90
2019-02-26T06:04:04.817Z,16.90
2019-02-26T06:05:01.945Z,16.31
2019-02-26T06:06:01.943Z,15.92
2019-02-26T06:07:02.679Z,16.21
2019-02-26T06:08:01.951Z,16.02
2019-02-26T06:09:02.927Z,15.92
2019-02-26T06:10:01.959Z,16.31
2019-02-26T06:11:01.959Z,16.31
2019-02-26T06:12:01.961Z,16.12
2019-02-26T06:13:02.775Z,16.22
2019-02-26T06:14:06.694Z,15.92
2019-02-26T06:15:05.098Z,16.22
2019-02-26T06:16:04.767Z,16.22
2019-02-26T06:17:01.976Z,16.12
2019-02-26T06:18:01.978Z,16.02
2019-02-26T06:19:01.980Z,15.92
2019-02-26T06:20:04.812Z,16.02
2019-02-26T06:21:02.019Z,16.71
2019-02-26T06:22:01.991Z,16.71
2019-02-26T06:23:01.994Z,16.71
2019-02-26T06:24:01.995Z,16.90
2019-02-26T06:25:04.177Z,16.51
2019-02-26T06:26:04.939Z,16.22
2019-02-26T06:27:02.007Z,16.02
2019-02-26T06:28:04.807Z,15.83
2019-02-26T06:29:02.012Z,15.54
2019-02-26T06:30:04.149Z,15.64
2019-02-26T06:31:02.019Z,15.64
2019-02-26T06:32:03.055Z,15.73
2019-02-26T06:33:04.171Z,15.73
2019-02-26T06:34:05.640Z,15.64
2019-02-26T06:35:02.031Z,15.83
2019-02-26T06:36:04.140Z,15.92
2019-02-26T06:37:02.038Z,15.83
2019-02-26T06:38:04.405Z,15.92
2019-02-26T06:39:04.217Z,15.92
2019-02-26T06:40:03.116Z,16.02
2019-02-26T06:41:02.076Z,15.83
2019-02-26T06:42:03.001Z,15.64
2019-02-26T06:43:02.059Z,15.73
2019-02-26T06:44:02.059Z,16.31
2019-02-26T06:45:03.971Z,15.92
2019-02-26T06:46:02.676Z,16.31
2019-02-26T06:47:09.143Z,16.80
2019-02-26T06:48:02.078Z,16.80
2019-02-26T06:49:02.103Z,16.90
2019-02-26T06:50:02.906Z,16.90
2019-02-26T06:51:02.686Z,16.61
2019-02-26T06:52:02.083Z,16.99
2019-02-26T06:53:04.414Z,17.38
2019-02-26T06:54:02.089Z,17.97
2019-02-26T06:55:05.942Z,17.97
2019-02-26T06:56:02.096Z,18.45
2019-02-26T06:57:02.098Z,17.97
2019-02-26T06:58:02.103Z,18.26
2019-02-26T06:59:02.917Z,18.45
2019-02-26T07:00:04.085Z,18.84
2019-02-26T07:01:02.113Z,18.94
2019-02-26T07:02:02.115Z,18.94
2019-02-26T07:03:02.657Z,18.84
2019-02-26T07:04:02.125Z,19.13
2019-02-26T07:05:02.123Z,19.04
2019-02-26T07:06:04.825Z,19.42
2019-02-26T07:07:04.208Z,19.62
2019-02-26T07:08:04.260Z,19.71
2019-02-26T07:09:02.135Z,20.01
2019-02-26T07:10:02.140Z,19.71
2019-02-26T07:11:03.766Z,20.10
2019-02-26T07:12:02.147Z,20.20
2019-02-26T07:13:14.885Z,20.10
2019-02-26T07:14:03.632Z,20.30
2019-02-26T07:15:02.213Z,20.88
2019-02-26T07:16:04.582Z,20.88
2019-02-26T07:17:02.165Z,20.59
2019-02-26T07:18:04.631Z,20.98
2019-02-26T07:19:03.836Z,20.79
2019-02-26T07:20:03.177Z,20.68
2019-02-26T07:21:02.171Z,20.79
2019-02-26T07:22:02.200Z,20.78
2019-02-26T07:23:03.920Z,21.08
2019-02-26T07:24:03.454Z,20.99
2019-02-26T07:25:02.235Z,20.79
2019-02-26T07:26:02.193Z,20.89
2019-02-26T07:27:04.138Z,20.98
2019-02-26T07:28:02.938Z,21.09
2019-02-26T07:29:03.537Z,21.17
2019-02-26T07:30:02.209Z,21.18
2019-02-26T07:34:03.193Z,21.28
2019-02-26T07:35:04.047Z,21.18
2019-02-26T07:36:04.126Z,21.18
2019-02-26T07:37:04.108Z,21.18
2019-02-26T07:38:03.612Z,21.09
2019-02-26T07:39:02.232Z,21.47
2019-02-26T07:40:03.744Z,21.28
2019-02-26T07:41:03.772Z,21.37
2019-02-26T07:42:02.243Z,21.57
2019-02-26T07:43:04.869Z,21.57
2019-02-26T07:44:02.259Z,21.86
2019-02-26T07:45:02.251Z,21.77
2019-02-26T07:46:02.268Z,21.77
2019-02-26T07:47:03.652Z,21.77
2019-02-26T07:48:02.259Z,21.77
2019-02-26T07:49:04.891Z,21.86
2019-02-26T07:53:02.325Z,21.67
2019-02-26T07:54:02.279Z,21.57
2019-02-26T07:55:03.740Z,21.57
2019-02-26T07:56:04.529Z,21.67
2019-02-26T07:57:02.789Z,21.86
2019-02-26T07:58:02.315Z,21.77
2019-02-26T07:59:06.718Z,21.77
2019-02-26T08:00:02.297Z,22.06
2019-02-26T08:01:02.302Z,21.67
2019-02-26T08:02:03.791Z,21.96
2019-02-26T08:03:04.473Z,21.96
2019-02-26T08:04:02.313Z,21.96
2019-02-26T08:05:02.316Z,21.86
2019-02-26T08:06:06.536Z,21.77
2019-02-26T08:07:03.734Z,21.86
2019-02-26T08:08:02.327Z,21.96
2019-02-26T08:09:48.285Z,21.86
2019-02-26T08:10:02.801Z,21.96
2019-02-26T08:11:02.337Z,21.86
2019-02-26T08:12:04.241Z,21.77
2019-02-26T08:13:03.356Z,21.96
2019-02-26T08:14:02.347Z,21.77
2019-02-26T08:15:04.585Z,21.86
2019-02-26T08:16:03.111Z,21.86
2019-02-26T08:17:03.931Z,21.77
2019-02-26T08:18:58.918Z,21.96
2019-02-26T08:19:03.259Z,22.06
2019-02-26T08:20:06.846Z,21.96
2019-02-26T08:21:03.045Z,21.96
2019-02-26T08:22:02.373Z,22.16
2019-02-26T08:23:02.376Z,22.16
2019-02-26T08:24:02.377Z,22.06
2019-02-26T08:25:02.386Z,22.06
2019-02-26T08:26:02.399Z,22.16
2019-02-26T08:27:03.414Z,22.25
2019-02-26T08:28:02.441Z,22.35
2019-02-26T08:29:03.414Z,22.35
2019-02-26T08:30:02.402Z,22.35
2019-02-26T08:31:02.402Z,22.25
2019-02-26T08:32:02.401Z,22.25
2019-02-26T08:33:04.834Z,22.25
2019-02-26T08:34:02.411Z,22.16
2019-02-26T08:35:02.418Z,22.25
2019-02-26T08:37:01.550Z,22.35
2019-02-26T08:38:05.663Z,22.44
2019-02-26T08:39:02.429Z,22.64
2019-02-26T08:40:02.431Z,22.44
2019-02-26T08:41:02.434Z,22.64
2019-02-26T08:42:02.439Z,22.64
2019-02-26T08:43:02.448Z,22.64
2019-02-26T08:44:02.447Z,22.74
2019-02-26T08:46:12.162Z,22.64
2019-02-26T08:47:06.049Z,22.64
2019-02-26T08:48:02.457Z,22.74
2019-02-26T08:49:08.282Z,22.64
2019-02-26T08:50:04.727Z,22.74
2019-02-26T08:51:05.384Z,22.44
2019-02-26T08:52:02.472Z,22.25
2019-02-26T08:53:02.486Z,22.36
2019-02-26T08:54:02.479Z,22.36
2019-02-26T08:55:02.493Z,22.25
2019-02-26T08:56:04.077Z,22.25
2019-02-26T08:57:02.490Z,22.16
2019-02-26T08:58:02.498Z,22.35
2019-02-26T08:59:03.603Z,22.35
2019-02-26T09:00:02.512Z,21.96
2019-02-26T09:01:02.502Z,21.96
2019-02-26T09:02:02.507Z,21.88
2019-02-26T09:03:02.557Z,21.96
2019-02-26T09:04:02.510Z,22.16
2019-02-26T09:05:04.474Z,22.06
2019-02-26T09:06:10.912Z,22.16
2019-02-26T09:07:02.523Z,22.16
2019-02-26T09:08:02.528Z,22.16
2019-02-26T09:09:04.576Z,22.16
2019-02-26T09:10:02.537Z,22.06
2019-02-26T09:11:03.468Z,22.07
2019-02-26T09:12:03.251Z,22.06
2019-02-26T09:13:02.542Z,22.07
2019-02-26T09:14:04.744Z,21.68
2019-02-26T09:15:02.555Z,21.77
2019-02-26T09:16:03.033Z,21.96
2019-02-26T09:17:04.524Z,21.77
2019-02-26T09:18:02.558Z,21.78
2019-02-26T09:19:02.566Z,21.68
2019-02-26T09:20:09.176Z,21.97
2019-02-26T09:21:02.572Z,21.96
2019-02-26T09:22:02.576Z,21.96
2019-02-26T09:23:02.579Z,21.96
2019-02-26T09:24:04.826Z,21.86
2019-02-26T09:25:02.820Z,21.96
2019-02-26T09:26:04.585Z,22.07
2019-02-26T09:27:04.946Z,22.25
2019-02-26T09:28:04.202Z,21.96
2019-02-26T09:29:02.598Z,22.06
2019-02-26T09:30:03.454Z,22.07
2019-02-26T09:31:04.742Z,22.07
2019-02-26T09:32:02.611Z,22.16
2019-02-26T09:33:03.386Z,22.16
2019-02-26T09:34:02.616Z,22.26
2019-02-26T09:35:04.778Z,22.25
2019-02-26T09:36:02.628Z,22.07
2019-02-26T09:37:05.010Z,22.06
2019-02-26T09:38:03.438Z,22.07
2019-02-26T09:39:03.303Z,21.96
2019-02-26T09:40:04.852Z,22.06
2019-02-26T09:41:02.641Z,21.86
2019-02-26T09:42:04.150Z,22.16
2019-02-26T09:43:02.649Z,21.97
2019-02-26T09:44:06.253Z,22.07
2019-02-26T09:45:02.662Z,22.26
2019-02-26T09:46:04.020Z,22.36
2019-02-26T09:47:04.961Z,22.26
2019-02-26T09:48:02.679Z,22.36
2019-02-26T09:49:04.620Z,22.26
2019-02-26T09:50:02.672Z,22.26
2019-02-26T09:51:04.748Z,22.26
2019-02-26T09:52:04.025Z,22.36
2019-02-26T09:53:02.746Z,22.36
2019-02-26T09:54:02.684Z,22.36
2019-02-26T09:55:02.697Z,22.26
2019-02-26T09:56:02.689Z,22.26
2019-02-26T09:57:02.696Z,22.26
2019-02-26T09:58:02.740Z,22.26
2019-02-26T09:59:04.624Z,22.26
2019-02-26T10:00:03.324Z,22.26
2019-02-26T10:01:02.721Z,22.26
2019-02-26T10:02:04.095Z,22.36
2019-02-26T10:03:03.476Z,22.26
2019-02-26T10:04:04.980Z,22.26
2019-02-26T10:05:02.733Z,22.26
2019-02-26T10:06:02.728Z,22.26
2019-02-26T10:07:04.236Z,22.36
2019-02-26T10:08:05.264Z,22.07
2019-02-26T10:09:02.737Z,21.88
2019-02-26T10:10:05.451Z,21.88
2019-02-26T10:11:04.799Z,21.78
2019-02-26T10:12:04.945Z,21.78
2019-02-26T10:13:04.811Z,21.97
2019-02-26T10:14:05.216Z,21.97
2019-02-26T10:15:05.144Z,21.97
2019-02-26T10:16:04.464Z,22.07
2019-02-26T10:17:02.766Z,21.97
2019-02-26T10:18:06.203Z,21.97
2019-02-26T10:19:02.774Z,21.97
2019-02-26T10:20:04.994Z,22.07
2019-02-26T10:21:02.790Z,22.07
2019-02-26T10:22:06.000Z,21.97
2019-02-26T10:23:04.271Z,21.88
2019-02-26T10:24:04.569Z,21.88
2019-02-26T10:25:02.795Z,21.97
2019-02-26T10:26:03.528Z,21.88
2019-02-26T10:27:03.739Z,21.78
2019-02-26T10:28:05.706Z,21.58
2019-02-26T10:29:04.562Z,21.68
2019-02-26T10:30:07.111Z,21.48
2019-02-26T10:31:04.854Z,21.48
2019-02-26T10:32:02.817Z,21.58
2019-02-26T10:33:03.036Z,21.58
2019-02-26T10:34:03.171Z,21.58
2019-02-26T10:35:04.601Z,21.39
2019-02-26T10:36:05.220Z,21.29
2019-02-26T10:37:02.836Z,21.39
2019-02-26T10:38:05.743Z,21.39
2019-02-26T10:39:02.965Z,21.48
2019-02-26T10:40:02.848Z,21.39
2019-02-26T10:41:04.996Z,21.58
2019-02-26T10:42:02.854Z,21.19
2019-02-26T10:43:02.858Z,21.58
2019-02-26T10:44:02.860Z,21.48
2019-02-26T10:45:02.867Z,21.58
2019-02-26T10:46:02.871Z,21.19
2019-02-26T10:47:04.053Z,21.29
2019-02-26T10:48:02.907Z,21.29
2019-02-26T10:49:02.880Z,21.48
2019-02-26T10:50:02.892Z,21.30
2019-02-26T10:51:06.045Z,21.29
2019-02-26T10:52:02.889Z,21.19
2019-02-26T10:53:09.696Z,21.39
2019-02-26T10:54:05.623Z,21.11
2019-02-26T10:55:02.907Z,21.00
2019-02-26T10:56:02.904Z,20.72
2019-02-26T10:57:04.570Z,20.51
2019-02-26T10:58:07.110Z,20.42
2019-02-26T10:59:05.928Z,20.22
2019-02-26T11:00:05.667Z,20.12
2019-02-26T11:01:05.225Z,20.12
2019-02-26T11:02:03.216Z,20.32
2019-02-26T11:03:02.933Z,20.42
2019-02-26T11:04:04.486Z,19.93
2019-02-26T11:05:02.942Z,19.83
2019-02-26T11:06:04.838Z,20.03
2019-02-26T11:07:04.794Z,20.03
2019-02-26T11:08:08.815Z,20.03
2019-02-26T11:09:03.014Z,19.93
2019-02-26T11:10:02.960Z,19.93
2019-02-26T11:11:04.707Z,19.73
2019-02-26T11:12:05.725Z,19.83
2019-02-26T11:13:02.967Z,19.63
2019-02-26T11:14:05.154Z,19.73
2019-02-26T11:15:04.973Z,19.93
2019-02-26T11:16:03.187Z,19.73
2019-02-26T11:17:02.980Z,19.73
2019-02-26T11:18:02.983Z,19.63
2019-02-26T11:19:04.312Z,19.73
2019-02-26T11:20:04.488Z,19.83
2019-02-26T11:21:03.010Z,19.93
2019-02-26T11:22:04.205Z,20.03
2019-02-26T11:23:05.599Z,19.73
2019-02-26T11:24:03.680Z,19.73
2019-02-26T11:25:03.006Z,19.73
2019-02-26T11:26:04.107Z,20.01
2019-02-26T11:27:03.014Z,19.83
2019-02-26T11:28:04.942Z,19.73
2019-02-26T11:29:03.028Z,19.92
2019-02-26T11:30:05.024Z,19.64
2019-02-26T11:31:03.029Z,19.92
2019-02-26T11:32:04.384Z,19.82
2019-02-26T11:33:05.285Z,19.83
2019-02-26T11:34:05.879Z,19.82
2019-02-26T11:35:03.046Z,20.03
2019-02-26T11:36:05.294Z,20.03
2019-02-26T11:37:07.607Z,20.03
2019-02-26T11:38:03.078Z,19.93
2019-02-26T11:39:05.083Z,20.03
2019-02-26T11:40:05.365Z,20.01
2019-02-26T11:41:03.066Z,20.01
2019-02-26T11:42:03.067Z,19.73
2019-02-26T11:43:11.291Z,19.73
2019-02-26T11:44:07.354Z,19.82
2019-02-26T11:45:06.626Z,19.73
2019-02-26T11:46:03.921Z,19.54
2019-02-26T11:47:03.086Z,19.43
2019-02-26T11:48:03.683Z,19.53
2019-02-26T11:49:03.111Z,19.53
2019-02-26T11:50:06.501Z,20.01
2019-02-26T11:51:03.113Z,19.63
2019-02-26T11:52:04.361Z,19.34
2019-02-26T11:53:03.104Z,18.95
2019-02-26T11:54:04.966Z,19.24
2019-02-26T11:55:05.935Z,19.14
2019-02-26T11:56:03.114Z,19.24
2019-02-26T11:57:04.584Z,19.14
2019-02-26T11:58:05.656Z,19.34
2019-02-26T11:59:06.569Z,19.24
2019-02-26T12:00:04.554Z,18.85
2019-02-26T12:01:03.135Z,18.85
2019-02-26T12:02:04.401Z,18.95
2019-02-26T12:03:03.143Z,19.04
2019-02-26T12:04:04.188Z,18.95
2019-02-26T12:05:05.446Z,18.95
2019-02-26T12:06:03.150Z,18.95
2019-02-26T12:07:04.040Z,18.95
2019-02-26T12:08:03.158Z,18.95
2019-02-26T12:09:06.129Z,19.04
2019-02-26T12:10:09.354Z,18.95
2019-02-26T12:11:04.016Z,18.75
2019-02-26T12:12:03.968Z,18.75
2019-02-26T12:13:03.174Z,18.95
2019-02-26T12:14:03.182Z,18.85
2019-02-26T12:15:04.439Z,18.85
2019-02-26T12:16:03.183Z,18.95
2019-02-26T12:17:03.188Z,18.95
2019-02-26T12:18:03.193Z,19.04
2019-02-26T12:19:05.454Z,18.85
2019-02-26T12:20:03.205Z,19.04
2019-02-26T12:21:05.366Z,18.96
2019-02-26T12:22:05.332Z,19.24
2019-02-26T12:23:03.211Z,18.96
2019-02-26T12:24:05.787Z,19.43
2019-02-26T12:25:05.741Z,19.15
2019-02-26T12:26:03.881Z,19.25
2019-02-26T12:27:03.222Z,19.15
2019-02-26T12:28:05.301Z,19.15
2019-02-26T12:29:04.469Z,18.86
2019-02-26T12:30:03.243Z,18.37
2019-02-26T12:31:04.295Z,18.18
2019-02-26T12:32:04.715Z,17.89
2019-02-26T12:33:03.242Z,17.88
2019-02-26T12:34:03.247Z,17.58
2019-02-26T12:35:03.919Z,17.40
2019-02-26T12:36:05.229Z,17.40
2019-02-26T12:37:05.930Z,17.21
2019-02-26T12:38:17.238Z,17.30
2019-02-26T12:39:03.262Z,17.10
2019-02-26T12:40:03.270Z,16.71
2019-02-26T12:41:05.734Z,17.49
2019-02-26T12:42:03.276Z,17.49
2019-02-26T12:43:07.401Z,17.40
2019-02-26T12:44:05.759Z,17.30
2019-02-26T12:45:06.308Z,17.20
2019-02-26T12:46:04.720Z,17.00
2019-02-26T12:47:03.291Z,16.71
2019-02-26T12:48:03.294Z,16.91
2019-02-26T12:49:05.731Z,16.91
2019-02-26T12:50:05.983Z,16.61
2019-02-26T12:51:04.752Z,16.81
2019-02-26T12:52:03.532Z,16.52
2019-02-26T12:53:03.314Z,16.32
2019-02-26T12:54:04.380Z,16.32
2019-02-26T12:55:04.125Z,16.22
2019-02-26T12:56:08.276Z,16.22
2019-02-26T12:57:04.128Z,16.32
2019-02-26T12:58:03.334Z,16.13
2019-02-26T12:59:03.334Z,16.03
2019-02-26T13:00:03.340Z,15.94